CheckWX is a tool to help pilots better visualize weather data.  It is not intended as a substitute for an official pre-flight weather briefing.

13:40:53 UTC

KHDN METAR
Yampa Valley Airport
Hayden, Colorado, USA
Current

45 mins ago

KHDN 201256Z AUTO 18005KT 10SM CLR 11/04 A3018 RMK AO2 SLP134 T01110039
Observed
Jul-20 @ 12:56 UTC
Wind
  • 180° at 5 KTS
Visibility
10 SM
Flight Rules
VFR
Cloud Levels
  • Clear skies
Temperature
11°C / 52°F
Dewpoint
C / 39°F
Humidity
62%
Altimeter
30.18" Hg
Pressure
1022.02 hPa
Previous

2 hours ago

KHDN 201156Z AUTO 10009KT 10SM CLR 12/03 A3014 RMK AO2 SLP116 T01170028 10172 20111 53005
Observed
Jul-20 @ 11:56 UTC
Wind
  • 100° at 9 KTS
Visibility
10 SM
Flight Rules
VFR
Cloud Levels
  • Clear skies
Temperature
12°C / 54°F
Dewpoint
C / 37°F
Humidity
54%
Altimeter
30.14" Hg
Pressure
1020.62 hPa
Previous

3 hours ago

KHDN 201056Z AUTO 10014KT 10SM CLR 13/03 A3013 RMK AO2 SLP108 T01280033
Observed
Jul-20 @ 10:56 UTC
Wind
  • 100° at 14 KTS
Visibility
10 SM
Flight Rules
VFR
Cloud Levels
  • Clear skies
Temperature
13°C / 55°F
Dewpoint
C / 37°F
Humidity
51%
Altimeter
30.13" Hg
Pressure
1020.32 hPa